Airfield :
LOGIN :

Register | Disclaimer

   EN    FR    IT 

 










Legend :    VFR   Marginal VFR   IFR   Intensive IFR   Very Intensive IFR
Visi :
Ceiling :
>= 8 km
>= 3000ft
5 to 8 km
1000 to 3000 ft
1500m to 5 km
500 to 1000 ft
800 to 1500m
200 to 500 ft
< 800m
< 200 ft
Symbols :   Thunderstorms  Fog  Heavy snow  Heavy precipitations  Wind > 20 kt
SIGMETs :     Misc.  Thunderstorms  Icing  Turbulence  Mountain Waves  Volcanic Ashes






- Airport Elevation : 106 ft
- IATA code : NRN


EDLV - Weeze

CURRENT METAR :
  • 290450Z 19011KT 9000 -DZ BKN005 OVC012 15/14 Q1009 RERA

EXPIRED METARs :
  • 290420Z 19009KT 4600 RA BKN006 OVC013 15/14 Q1009
  • 290350Z 19011KT 160V220 6000 RA BKN008 BKN014 OVC031 15/14 Q1010
  • 290320Z 19009KT 6000 RA BKN011 BKN013 OVC039 15/14 Q1010
  • 290250Z 18008KT 160V220 9999 BKN010 15/14 Q1010
  • 290220Z AUTO 18008KT 9999 // FEW006/// OVC012/// 15/14 Q1010
  • 290150Z AUTO 17007KT 9000 // BKN004/// BKN011/// OVC025/// 15/14 Q1011
  • 290120Z AUTO 19005KT 3800 // BKN003/// OVC005/// 14/14 Q1011
  • 290050Z AUTO 20007KT 170V240 4400 // FEW005/// SCT014/// OVC019/// 14/14 Q1012
  • 290020Z AUTO 18009KT 6000 // FEW022/// SCT031/// OVC041/// 15/14 Q1012

TAF TAF EDLV
Valid from the 28 at 18:00 until the 29 at 18:00 UTC


281700Z 2818/2918 20009KT 9999 SCT015 BKN030
BECMG 2818/2821 SCT007 BKN012
TEMPO 2818/2906 RA BKN007
PROB40
TEMPO 2900/2903 4000 +RA
BECMG 2907/2909 BKN020
TEMPO 2909/2914 SHRA BKN020CB
PROB40
TEMPO 2910/2913 24015G25KT 4000 TSRA BKN015CB
BECMG 2916/2918 26006KT



MET'MAP, your aeronautical weather chart ! - Copyright ORBIFLY December 2007 - Disclaimer

ORBIFLY MET'MAP TEAM :

Programming & Development : Alexandra Zaïnal
Original concept : Baudouin d'Aumeries
Technical & hardware support : Manuel Goepfert
Assistance : Marc-Olivier Méhu




SOURCES & CREDITS :

   NOAA